Time;durP1;ratioP1;P1;durP2;ratioP2;P2;SDS_P1;SDS_P2;PMS_P1;PMS_P2;Temp;Humidity;BMP_temperature;BMP_pressure;BME280_temperature;BME280_humidity;BME280_pressure;Samples;Min_cycle;Max_cycle;Signal;HPM_P1;HPM_P2
2022/07/28 00:00:22;;;;;;;2.63;2.00;;;11.40;99.90;;;;;;4918282;28;94677;-33
2022/07/28 00:02:48;;;;;;;7.57;2.55;;;11.30;99.90;;;;;;4918518;28;93889;-33
2022/07/28 00:05:13;;;;;;;4.15;1.80;;;11.30;99.90;;;;;;4918855;28;92700;-30
2022/07/28 00:07:39;;;;;;;5.05;1.90;;;11.30;99.90;;;;;;4918302;28;95704;-30
2022/07/28 00:10:05;;;;;;;2.63;2.08;;;11.30;99.90;;;;;;4918067;28;94557;-32
2022/07/28 00:12:31;;;;;;;2.25;1.55;;;11.40;99.90;;;;;;4918403;28;91388;-29
2022/07/28 00:14:56;;;;;;;1.67;1.58;;;11.40;99.90;;;;;;4954087;23;94616;-30
2022/07/28 00:17:22;;;;;;;4.10;1.83;;;11.50;99.90;;;;;;4919002;28;94826;-29
2022/07/28 00:19:47;;;;;;;1.60;1.38;;;11.50;99.90;;;;;;4917335;28;94585;-32
2022/07/28 00:22:13;;;;;;;1.45;1.35;;;11.50;99.90;;;;;;4918400;28;92138;-30
2022/07/28 00:24:39;;;;;;;2.17;1.50;;;11.50;99.90;;;;;;4917912;28;94360;-28
2022/07/28 00:27:08;;;;;;;3.63;2.28;;;11.50;99.90;;;;;;4918077;28;94917;-33
2022/07/28 00:29:34;;;;;;;13.07;2.45;;;11.50;99.90;;;;;;4918677;28;94659;-29
2022/07/28 00:32:00;;;;;;;2.08;1.60;;;11.40;99.90;;;;;;4919176;28;92859;-31
2022/07/28 00:34:25;;;;;;;3.03;1.77;;;11.40;99.90;;;;;;4917643;28;94538;-29
2022/07/28 00:36:51;;;;;;;2.33;1.60;;;11.30;99.90;;;;;;4918737;28;94672;-28
2022/07/28 00:39:16;;;;;;;2.17;1.67;;;11.30;99.90;;;;;;4917661;28;93619;-29
2022/07/28 00:41:42;;;;;;;5.70;1.92;;;11.30;99.90;;;;;;4919264;28;92160;-30
2022/07/28 00:44:08;;;;;;;2.92;1.58;;;11.30;99.90;;;;;;4917253;28;94831;-31
2022/07/28 00:46:34;;;;;;;3.13;1.42;;;11.40;99.90;;;;;;4917334;28;94897;-30
2022/07/28 00:49:00;;;;;;;2.47;1.55;;;11.40;99.90;;;;;;4918607;28;94275;-30
2022/07/28 00:51:27;;;;;;;2.63;1.40;;;11.50;99.90;;;;;;4917857;28;94887;-30
2022/07/28 00:53:53;;;;;;;2.35;1.45;;;11.50;99.90;;;;;;4917879;28;92949;-30
2022/07/28 00:56:19;;;;;;;1.58;1.48;;;11.50;99.90;;;;;;4917896;28;94502;-29
2022/07/28 00:58:46;;;;;;;1.80;1.70;;;11.50;99.90;;;;;;4917153;28;93200;-29
2022/07/28 01:01:16;;;;;;;3.38;2.13;;;11.40;99.90;;;;;;4918758;28;91852;-30
2022/07/28 01:03:46;;;;;;;2.78;2.17;;;11.30;99.90;;;;;;4918098;28;94472;-29
2022/07/28 01:06:15;;;;;;;1.92;1.83;;;11.30;99.90;;;;;;4917321;28;94544;-31
2022/07/28 01:09:04;;;;;;;1.88;1.77;;;11.30;99.90;;;;;;4917371;28;95412;-28
2022/07/28 01:11:31;;;;;;;1.83;1.67;;;11.30;99.90;;;;;;4917650;28;94262;-34
2022/07/28 01:14:09;;;;;;;4.88;2.05;;;11.30;99.90;;;;;;4917840;28;93350;-33
2022/07/28 01:16:44;;;;;;;1.30;1.20;;;11.30;99.90;;;;;;4918364;28;95056;-31
2022/07/28 01:19:35;;;;;;;2.17;1.80;;;11.30;99.90;;;;;;4917226;28;94574;-31
2022/07/28 01:22:03;;;;;;;2.97;1.45;;;11.30;99.90;;;;;;4907692;28;92187;-31
2022/07/28 01:24:59;;;;;;;1.60;1.25;;;11.30;99.90;;;;;;4918256;28;94435;-31
2022/07/28 01:27:33;;;;;;;1.48;1.27;;;11.20;99.90;;;;;;4920931;28;94865;-30
2022/07/28 01:30:06;;;;;;;2.05;1.35;;;11.10;99.90;;;;;;4921062;28;93709;-31
2022/07/28 01:32:38;;;;;;;2.85;1.45;;;11.10;99.90;;;;;;4920966;28;92622;-32
2022/07/28 01:35:11;;;;;;;1.80;1.65;;;11.00;99.90;;;;;;4920148;28;94015;-32
2022/07/28 01:37:47;;;;;;;2.53;1.92;;;10.90;99.90;;;;;;4921113;28;94790;-32
2022/07/28 01:40:18;;;;;;;2.20;1.30;;;10.90;99.90;;;;;;4920566;28;94846;-31
2022/07/28 01:42:47;;;;;;;2.83;1.50;;;10.80;99.90;;;;;;4921711;28;94186;-31
2022/07/28 01:45:14;;;;;;;3.05;1.85;;;10.80;99.90;;;;;;4920318;28;95833;-32
2022/07/28 01:47:44;;;;;;;2.38;1.33;;;10.80;99.90;;;;;;4920835;28;94677;-29
2022/07/28 01:50:12;;;;;;;2.35;1.55;;;10.80;99.90;;;;;;4902686;28;95888;-28
2022/07/28 01:52:40;;;;;;;1.90;1.67;;;10.80;99.90;;;;;;4921442;28;91358;-29
2022/07/28 01:55:07;;;;;;;;;;;10.80;99.90;;;;;;4921339;28;94814;-30
2022/07/28 01:57:35;;;;;;;1.40;1.30;;;10.80;99.90;;;;;;4922057;28;93729;-28
2022/07/28 02:00:03;;;;;;;2.30;1.65;;;10.80;99.90;;;;;;4919673;28;94840;-31
2022/07/28 02:02:32;;;;;;;2.93;1.80;;;10.80;99.90;;;;;;4920806;28;94738;-29
2022/07/28 02:04:59;;;;;;;2.45;1.70;;;10.80;99.90;;;;;;4918098;28;92183;-30
2022/07/28 02:07:27;;;;;;;2.25;1.77;;;10.80;99.90;;;;;;4920168;28;94759;-34
2022/07/28 02:09:55;;;;;;;3.33;1.73;;;10.80;99.90;;;;;;4920220;28;94010;-29
2022/07/28 02:12:23;;;;;;;6.00;2.28;;;10.90;99.90;;;;;;4920467;28;93501;-30
2022/07/28 02:14:49;;;;;;;1.93;1.80;;;10.90;99.90;;;;;;4919431;28;94255;-30
2022/07/28 02:17:19;;;;;;;1.98;1.80;;;10.90;99.90;;;;;;4920399;28;94047;-30
2022/07/28 02:19:47;;;;;;;2.78;1.92;;;10.90;99.90;;;;;;4919824;28;94623;-30
2022/07/28 02:22:14;;;;;;;1.90;1.52;;;10.90;99.90;;;;;;4920270;28;92188;-30
2022/07/28 02:24:42;;;;;;;2.60;1.77;;;10.90;99.90;;;;;;4919665;28;95348;-29
2022/07/28 02:27:10;;;;;;;2.72;2.40;;;10.90;99.90;;;;;;4919546;28;94981;-34
2022/07/28 02:29:40;;;;;;;;;;;10.80;99.90;;;;;;4919834;28;94722;-31
2022/07/28 02:32:11;;;;;;;3.30;2.00;;;10.90;99.90;;;;;;4921871;28;94018;-29
2022/07/28 02:34:38;;;;;;;2.97;1.65;;;10.80;99.90;;;;;;4918977;28;93175;-30
2022/07/28 02:37:08;;;;;;;2.00;1.60;;;10.90;99.90;;;;;;4919425;28;94703;-31
2022/07/28 02:39:52;;;;;;;3.42;2.10;;;10.90;99.90;;;;;;4919221;28;95090;-28
2022/07/28 02:42:25;;;;;;;5.30;1.80;;;10.80;99.90;;;;;;4920895;28;91486;-31
2022/07/28 02:44:57;;;;;;;4.22;2.00;;;10.80;99.90;;;;;;4919599;28;92938;-29
2022/07/28 02:47:26;;;;;;;2.92;1.67;;;10.80;99.90;;;;;;4919344;28;94631;-30
2022/07/28 02:49:53;;;;;;;1.35;1.20;;;10.70;99.90;;;;;;4918905;28;95329;-32
2022/07/28 02:52:22;;;;;;;1.57;1.47;;;10.60;99.90;;;;;;4919932;28;93821;-34
2022/07/28 02:54:53;;;;;;;1.70;1.58;;;10.50;99.90;;;;;;4919481;28;92618;-30
2022/07/28 02:57:20;;;;;;;2.85;1.80;;;10.50;99.90;;;;;;4919941;28;95189;-33
2022/07/28 02:59:47;;;;;;;5.13;3.10;;;10.50;99.90;;;;;;4919441;28;94817;-28
2022/07/28 03:02:13;;;;;;;2.58;2.20;;;10.40;99.90;;;;;;4919484;28;94492;-31
2022/07/28 03:04:58;;;;;;;4.10;2.20;;;10.40;99.90;;;;;;4919562;28;94581;-30
2022/07/28 03:07:29;;;;;;;2.53;2.13;;;10.40;99.90;;;;;;4920191;28;94118;-32
2022/07/28 03:09:55;;;;;;;3.17;2.30;;;10.30;99.90;;;;;;4919255;28;94037;-33
2022/07/28 03:12:20;;;;;;;2.88;2.00;;;10.30;99.90;;;;;;4919192;28;93884;-29
2022/07/28 03:14:46;;;;;;;3.30;1.77;;;10.30;99.90;;;;;;4917909;28;94450;-30
2022/07/28 03:17:12;;;;;;;2.33;2.08;;;10.30;99.90;;;;;;4919813;28;94592;-32
2022/07/28 03:19:38;;;;;;;3.83;2.65;;;10.20;99.90;;;;;;4918852;28;95003;-28
2022/07/28 03:22:04;;;;;;;6.40;2.15;;;10.10;99.90;;;;;;4920159;28;93413;-33
2022/07/28 03:24:34;;;;;;;3.03;1.92;;;10.00;99.90;;;;;;4918748;28;93570;-29
2022/07/28 03:27:32;;;;;;;2.42;1.70;;;9.90;99.90;;;;;;4919472;28;95692;-32
2022/07/28 03:30:02;;;;;;;4.38;2.30;;;9.90;99.90;;;;;;4919555;28;94466;-29
2022/07/28 03:32:30;;;;;;;2.63;1.85;;;9.90;99.90;;;;;;4919452;28;93756;-31
2022/07/28 03:34:56;;;;;;;1.95;1.63;;;9.90;99.90;;;;;;4918761;28;93252;-32
2022/07/28 03:37:37;;;;;;;1.40;1.30;;;9.90;99.90;;;;;;4918549;28;94721;-31
2022/07/28 03:40:03;;;;;;;2.22;2.10;;;9.90;99.90;;;;;;4918165;28;94476;-29
2022/07/28 03:42:30;;;;;;;3.20;1.65;;;9.90;99.90;;;;;;4919195;28;93919;-31
2022/07/28 03:44:55;;;;;;;1.98;1.65;;;9.90;99.90;;;;;;4919505;28;94783;-31
2022/07/28 03:47:23;;;;;;;1.83;1.73;;;9.80;99.90;;;;;;4917041;28;94517;-29
2022/07/28 03:49:49;;;;;;;3.00;1.85;;;9.70;99.90;;;;;;4918431;28;94697;-33
2022/07/28 03:52:16;;;;;;;3.35;1.67;;;9.70;99.90;;;;;;4919683;28;92247;-30
2022/07/28 03:54:41;;;;;;;3.83;2.10;;;9.70;99.90;;;;;;4918653;28;92117;-34
2022/07/28 03:57:07;;;;;;;2.00;1.85;;;9.60;99.90;;;;;;4919065;28;94007;-30
2022/07/28 03:59:33;;;;;;;2.13;1.38;;;9.70;99.90;;;;;;4917964;28;95625;-31
2022/07/28 04:01:58;;;;;;;3.03;1.90;;;9.60;99.90;;;;;;4919177;28;93309;-30
2022/07/28 04:04:24;;;;;;;2.70;2.15;;;9.70;99.90;;;;;;4917653;28;93070;-30
2022/07/28 04:06:50;;;;;;;1.77;1.58;;;9.60;99.90;;;;;;4918303;28;95063;-30
2022/07/28 04:09:15;;;;;;;2.40;1.83;;;9.70;99.90;;;;;;4918611;28;94633;-29
2022/07/28 04:11:41;;;;;;;5.15;1.80;;;9.70;99.90;;;;;;4919201;28;92702;-30
2022/07/28 04:14:07;;;;;;;2.40;2.20;;;9.70;99.90;;;;;;4917516;28;92649;-31
2022/07/28 04:16:33;;;;;;;3.30;2.15;;;9.70;99.90;;;;;;4918629;28;95071;-30
2022/07/28 04:18:58;;;;;;;2.45;2.22;;;9.80;99.90;;;;;;4918003;28;94480;-33
2022/07/28 04:21:24;;;;;;;2.10;1.90;;;9.80;99.90;;;;;;4918949;28;93570;-33
2022/07/28 04:23:50;;;;;;;3.13;2.92;;;9.80;99.90;;;;;;4918600;28;93052;-31
2022/07/28 04:26:16;;;;;;;2.67;2.28;;;9.80;99.90;;;;;;4917918;28;94784;-32
2022/07/28 04:28:42;;;;;;;2.55;2.35;;;9.90;99.90;;;;;;4900516;28;94659;-31
2022/07/28 04:31:08;;;;;;;4.03;2.85;;;9.90;99.90;;;;;;4917942;28;92952;-30
2022/07/28 04:33:33;;;;;;;5.10;2.28;;;9.90;99.90;;;;;;4918443;28;92392;-32
2022/07/28 04:36:02;;;;;;;3.83;2.22;;;10.00;99.90;;;;;;4917369;28;94814;-32
2022/07/28 04:38:28;;;;;;;1.80;1.70;;;10.10;99.90;;;;;;4917046;28;94209;-31
2022/07/28 04:40:54;;;;;;;2.63;2.30;;;10.20;99.90;;;;;;4918545;28;93021;-29
2022/07/28 04:43:20;;;;;;;7.38;1.88;;;10.20;99.90;;;;;;4917487;28;94571;-33
2022/07/28 04:45:46;;;;;;;7.65;1.77;;;10.40;99.90;;;;;;4918543;28;94332;-29
2022/07/28 04:48:13;;;;;;;1.75;1.65;;;10.40;99.90;;;;;;4917933;28;94375;-32
2022/07/28 04:50:44;;;;;;;7.00;2.05;;;10.50;99.90;;;;;;4917478;28;92104;-29
2022/07/28 04:53:10;;;;;;;4.53;2.33;;;10.60;99.90;;;;;;4917378;28;95441;-30
2022/07/28 04:55:37;;;;;;;2.88;1.70;;;10.60;99.90;;;;;;4917451;28;95451;-36
2022/07/28 04:58:04;;;;;;;3.43;1.83;;;10.60;99.90;;;;;;4918168;28;94503;-33
2022/07/28 05:00:30;;;;;;;2.05;1.73;;;10.70;99.90;;;;;;4917922;28;94446;-32
2022/07/28 05:02:57;;;;;;;2.13;1.77;;;10.80;99.90;;;;;;4917398;28;92974;-32
2022/07/28 05:05:23;;;;;;;2.65;2.40;;;10.90;99.90;;;;;;4917379;28;94834;-32
2022/07/28 05:07:48;;;;;;;2.40;2.20;;;10.90;99.90;;;;;;4917752;28;94813;-32
2022/07/28 05:10:14;;;;;;;2.53;2.33;;;10.90;99.90;;;;;;4918100;28;92142;-29
2022/07/28 05:12:40;;;;;;;2.28;2.13;;;11.00;99.90;;;;;;4917876;28;95013;-32
2022/07/28 05:15:07;;;;;;;3.13;1.92;;;11.10;99.90;;;;;;4915794;28;93497;-28
2022/07/28 05:17:33;;;;;;;1.92;1.70;;;11.30;99.90;;;;;;4916870;28;95668;-33
2022/07/28 05:19:58;;;;;;;2.92;1.80;;;11.30;99.90;;;;;;4917846;28;94418;-30
2022/07/28 05:22:24;;;;;;;3.80;2.30;;;11.50;99.90;;;;;;4916622;28;93396;-31
2022/07/28 05:24:49;;;;;;;3.15;2.15;;;11.60;99.90;;;;;;4917288;28;93909;-28
2022/07/28 05:27:15;;;;;;;5.63;1.90;;;11.80;99.90;;;;;;4916924;28;94569;-30
2022/07/28 05:29:40;;;;;;;4.43;2.25;;;11.90;99.90;;;;;;4917953;28;94632;-30
2022/07/28 05:32:07;;;;;;;2.75;1.73;;;12.10;99.90;;;;;;4916664;28;93003;-30
2022/07/28 05:34:33;;;;;;;4.55;2.63;;;12.20;99.90;;;;;;4917680;28;94017;-29
2022/07/28 05:37:01;;;;;;;2.75;2.33;;;12.40;99.90;;;;;;4917575;28;94469;-29
2022/07/28 05:39:31;;;;;;;3.87;2.53;;;12.60;99.90;;;;;;4917384;28;92357;-28
2022/07/28 05:41:58;;;;;;;5.85;3.55;;;12.70;99.90;;;;;;4917023;28;93939;-29
2022/07/28 05:44:24;;;;;;;5.53;3.50;;;12.80;99.90;;;;;;4916305;28;94883;-32
2022/07/28 05:46:50;;;;;;;4.47;2.97;;;13.00;99.90;;;;;;4916919;28;94984;-29
2022/07/28 05:49:15;;;;;;;4.53;2.38;;;13.20;99.90;;;;;;4917366;28;93960;-31
2022/07/28 05:51:41;;;;;;;7.40;4.10;;;13.40;99.90;;;;;;4916956;28;92571;-29
2022/07/28 05:54:06;;;;;;;5.07;4.22;;;13.60;99.90;;;;;;4917160;28;94447;-31
2022/07/28 05:56:32;;;;;;;4.72;3.20;;;13.90;99.90;;;;;;4916362;28;94527;-31
2022/07/28 05:58:57;;;;;;;3.38;2.15;;;14.00;99.90;;;;;;4918572;28;92631;-31
2022/07/28 06:01:23;;;;;;;7.50;3.35;;;14.10;99.90;;;;;;4916388;28;92107;-34
2022/07/28 06:03:51;;;;;;;5.50;3.00;;;14.20;99.90;;;;;;4916956;28;94633;-32
2022/07/28 06:06:17;;;;;;;;;;;14.30;99.90;;;;;;4916907;28;94456;-32
2022/07/28 06:08:46;;;;;;;7.57;2.67;;;14.40;99.90;;;;;;4918381;28;92242;-31
2022/07/28 06:11:15;;;;;;;3.60;2.85;;;14.40;99.90;;;;;;4918983;28;93484;-29
2022/07/28 06:13:41;;;;;;;5.40;2.97;;;14.60;99.90;;;;;;4919089;28;94587;-30
2022/07/28 06:16:07;;;;;;;4.55;2.65;;;14.70;99.90;;;;;;4918446;28;94386;-30
2022/07/28 06:18:32;;;;;;;5.55;3.58;;;14.90;99.90;;;;;;4907434;28;92285;-31
2022/07/28 06:20:58;;;;;;;4.90;2.85;;;15.10;99.90;;;;;;4912944;28;94187;-29
2022/07/28 06:23:24;;;;;;;2.95;2.05;;;15.30;99.90;;;;;;4921775;28;93870;-30
2022/07/28 06:25:50;;;;;;;3.42;1.90;;;15.60;99.90;;;;;;4929090;28;94558;-29
2022/07/28 06:28:17;;;;;;;2.70;2.05;;;15.80;99.90;;;;;;4929273;28;92624;-29
2022/07/28 06:30:44;;;;;;;3.35;2.25;;;15.90;99.90;;;;;;4924333;28;95691;-29
2022/07/28 06:33:09;;;;;;;5.03;2.58;;;16.10;99.90;;;;;;4919876;28;94937;-30
2022/07/28 06:35:35;;;;;;;2.65;1.50;;;16.30;99.90;;;;;;4920762;28;94799;-31
2022/07/28 06:38:00;;;;;;;2.75;1.90;;;16.50;99.90;;;;;;4920061;28;94848;-33
2022/07/28 06:40:26;;;;;;;2.47;1.80;;;16.70;99.90;;;;;;4921066;28;93392;-30
2022/07/28 06:42:52;;;;;;;2.72;1.63;;;16.90;99.90;;;;;;4924919;28;94402;-31
2022/07/28 06:45:18;;;;;;;2.70;2.13;;;17.00;99.90;;;;;;4927024;28;95024;-32
2022/07/28 06:47:44;;;;;;;2.08;1.60;;;17.10;99.90;;;;;;4925710;28;92511;-30
2022/07/28 06:50:09;;;;;;;2.55;1.35;;;17.30;99.90;;;;;;4920197;28;94131;-30
2022/07/28 06:52:35;;;;;;;4.50;1.90;;;17.30;99.90;;;;;;4921105;28;93505;-33
2022/07/28 06:55:02;;;;;;;4.70;1.73;;;17.50;99.90;;;;;;4928738;28;94784;-32
2022/07/28 06:57:28;;;;;;;2.78;1.20;;;17.60;99.90;;;;;;4931170;28;92229;-29
2022/07/28 06:59:54;;;;;;;1.27;1.17;;;17.90;99.90;;;;;;4929438;28;93280;-30
2022/07/28 07:02:19;;;;;;;1.33;1.15;;;18.00;99.90;;;;;;4930879;28;94680;-30
2022/07/28 07:04:45;;;;;;;2.80;1.30;;;18.10;99.90;;;;;;4929836;28;95348;-31
2022/07/28 07:07:12;;;;;;;3.05;1.08;;;18.20;99.90;;;;;;4930144;28;93020;-29
2022/07/28 07:09:38;;;;;;;2.08;1.20;;;18.20;99.90;;;;;;4930120;28;92134;-30
2022/07/28 07:12:04;;;;;;;1.10;1.02;;;18.10;99.90;;;;;;4927715;28;94412;-30
2022/07/28 07:14:29;;;;;;;1.90;1.35;;;18.00;99.90;;;;;;4925515;28;94212;-30
2022/07/28 07:16:55;;;;;;;3.25;1.10;;;18.00;99.90;;;;;;4929947;28;93162;-33
2022/07/28 07:19:21;;;;;;;1.58;1.48;;;18.10;99.90;;;;;;4921004;28;95191;-32
2022/07/28 07:21:47;;;;;;;2.67;1.30;;;18.20;99.90;;;;;;4925273;28;94994;-30
2022/07/28 07:24:12;;;;;;;1.38;0.60;;;18.40;99.90;;;;;;4930427;28;94900;-31
2022/07/28 07:26:39;;;;;;;3.22;1.58;;;18.60;99.90;;;;;;4930751;28;93176;-29
2022/07/28 07:29:05;;;;;;;1.10;1.00;;;18.80;99.90;;;;;;4928467;28;95667;-35
2022/07/28 07:31:33;;;;;;;2.42;1.10;;;18.90;99.90;;;;;;4928984;28;94949;-30
2022/07/28 07:33:59;;;;;;;2.28;2.00;;;18.80;99.90;;;;;;4930099;28;94467;-29
2022/07/28 07:36:24;;;;;;;3.88;1.13;;;18.70;99.90;;;;;;4924715;28;92411;-33
2022/07/28 07:38:50;;;;;;;4.05;1.20;;;18.70;99.90;;;;;;4923250;28;92831;-30
2022/07/28 07:41:17;;;;;;;0.98;0.90;;;18.60;99.90;;;;;;4918494;28;94994;-32
2022/07/28 07:43:43;;;;;;;1.90;1.70;;;18.50;99.90;;;;;;4918513;28;94594;-30
2022/07/28 07:46:09;;;;;;;2.15;1.08;;;18.50;99.90;;;;;;4916869;28;94060;-32
2022/07/28 07:48:34;;;;;;;1.90;1.17;;;18.50;99.90;;;;;;4918358;28;94164;-33
2022/07/28 07:51:00;;;;;;;0.93;0.88;;;18.40;99.90;;;;;;4918818;28;94801;-30
2022/07/28 07:53:25;;;;;;;3.83;1.52;;;18.20;99.90;;;;;;4918565;28;94502;-33
2022/07/28 07:55:51;;;;;;;2.05;1.02;;;18.20;99.90;;;;;;4919453;28;93470;-31
2022/07/28 07:58:17;;;;;;;3.97;1.58;;;18.20;99.90;;;;;;4918004;28;94247;-31
2022/07/28 08:00:42;;;;;;;3.00;2.25;;;18.30;99.90;;;;;;4918744;28;94360;-34
2022/07/28 08:03:08;;;;;;;1.67;1.48;;;18.30;99.90;;;;;;4917696;28;93929;-30
2022/07/28 08:05:34;;;;;;;2.80;1.40;;;18.30;99.90;;;;;;4918755;28;93627;-33
2022/07/28 08:08:00;;;;;;;1.60;1.50;;;18.30;99.90;;;;;;4917887;28;94018;-29
2022/07/28 08:10:25;;;;;;;1.85;1.67;;;18.30;99.90;;;;;;4917563;28;94058;-31
2022/07/28 08:12:51;;;;;;;3.47;1.38;;;18.40;99.90;;;;;;4918445;28;94296;-30
2022/07/28 08:15:16;;;;;;;4.68;1.58;;;18.50;99.90;;;;;;4918078;28;93477;-32
2022/07/28 08:17:42;;;;;;;1.50;1.30;;;18.50;99.90;;;;;;4918621;28;92692;-32
2022/07/28 08:20:08;;;;;;;2.45;1.35;;;18.60;99.90;;;;;;4917890;28;96596;-29
2022/07/28 08:22:45;;;;;;;3.85;1.45;;;18.60;99.90;;;;;;4917654;28;94677;-31
2022/07/28 08:25:10;;;;;;;3.22;1.40;;;18.80;99.90;;;;;;4918795;28;93884;-34
2022/07/28 08:27:36;;;;;;;6.22;1.73;;;19.10;99.90;;;;;;4917934;28;93628;-30
2022/07/28 08:30:02;;;;;;;3.90;1.60;;;19.40;99.90;;;;;;4917520;28;95358;-32
2022/07/28 08:32:28;;;;;;;1.05;1.00;;;19.70;99.90;;;;;;4916759;28;94528;-33
2022/07/28 08:34:53;;;;;;;2.42;1.75;;;19.90;99.90;;;;;;4917672;28;94237;-30
2022/07/28 08:37:19;;;;;;;3.08;1.00;;;20.00;99.90;;;;;;4917506;28;92748;-34
2022/07/28 08:39:44;;;;;;;3.38;1.40;;;20.00;99.90;;;;;;4917341;28;94513;-32
2022/07/28 08:42:26;;;;;;;5.03;1.23;;;19.90;99.90;;;;;;4917361;28;94602;-31
2022/07/28 08:45:04;;;;;;;4.00;1.27;;;20.00;99.90;;;;;;4917812;28;92618;-31
2022/07/28 08:47:31;;;;;;;2.10;1.10;;;19.80;99.90;;;;;;4917912;28;93211;-30
2022/07/28 08:49:58;;;;;;;6.20;1.70;;;19.90;99.90;;;;;;4917972;28;93915;-32
2022/07/28 08:52:32;;;;;;;1.67;1.17;;;20.00;99.90;;;;;;4917756;28;93553;-33
2022/07/28 08:55:03;;;;;;;1.58;1.02;;;20.10;99.90;;;;;;4917120;28;94596;-31
2022/07/28 08:57:39;;;;;;;3.08;1.50;;;20.00;99.90;;;;;;4916746;28;93249;-30
2022/07/28 09:00:06;;;;;;;2.22;1.00;;;20.00;97.10;;;;;;4916980;28;94915;-34
